Armavir, Russia

2:27 PM MSK on October 23, 2014 (GMT +0400)
Shpakovskoye | Change Station
CLOSE
Current Station
Airport
Location: Stavropol',
Elevation: 1483 ft
Nearby Weather Stations

Elev 1483 ft 45.12 °N, 42.08 °E | Updated 27 minutes ago

Clear
Clear
68 °F
Feels Like 68 °F
N
4
Wind Variable Wind from ESE

Today
High -- | Low -- °F
--% Chance of Precip.
Yesterday
High -- | Low -- °F
Precip. -- in
7:41 AM 6:17 PM
Waning Crescent, 0% visible
Pressure 29.92 in
Visibility -9999.0 miles
Clouds
Dew Point 36 °F
Humidity 30%
Rainfall 0.00 in
Snow Depth Not available.
UV Not available.
Pollen Not available.
Air Quality Not available.
Flu Activity Not available.
METAR URMT 231000Z 12002MPS CAVOK 20/02 Q1013 NOSIG RMK QFE721 SC070

More Conditions Fewer Conditions

Pressure 29.92 in
Visibility -9999.0 miles
Clouds
Dew Point 36 °F
Humidity 30%
Rainfall 0.00 in
Snow Depth Not available.
UV Not available.
Pollen Not available.
Air Quality Not available.
Flu Activity Not available.
METAR URMT 231000Z 12002MPS CAVOK 20/02 Q1013 NOSIG RMK QFE721 SC070

More Conditions Fewer Conditions

10-Day Weather Forecast

Almanac

Astronomy

Oct. 23, 2014 Rise Set
Actual Time 7:41 AM MSK 6:17 PM MSK
Civil Twilight 7:11 AM MSK 6:47 PM MSK
Nautical Twilight 6:37 AM MSK 7:21 PM MSK
Astronomical Twilight 6:03 AM MSK 7:55 PM MSK
Moon 6:57 AM MSK 6:07 PM MSK
Length of Visible Light 11h 36m
Length of Day
10h 36m
Tomorrow will be 2m 57s shorter.
Waning Crescent, 0% of the Moon is Illuminated
Today
Waning Crescent
Oct 23
New
Oct 30
First Quarter
Nov 6
Full
Nov 14
Last Quarter

Yesterday's Extremes

Country Highs Country Lows

Community

WunderPhotos

Upload Photos

1,764,202 photos uploaded!

Nearby

Snow Depth

Not available.

Earthquake Activity

City Distance Mag. Time & Date
No recent earthquake activity has been reported nearby.
Minimum magnitude displayed is 2.5.

Coastal Water Temperatures

Place Temperature
No Stations Reporting

Nearby Weather Stations